Time;durP1;ratioP1;P1;durP2;ratioP2;P2;SDS_P1;SDS_P2;PMS_P1;PMS_P2;Temp;Humidity;BMP_temperature;BMP_pressure;BME280_temperature;BME280_humidity;BME280_pressure;Samples;Min_cycle;Max_cycle;Signal;HPM_P1;HPM_P2
2023/05/24 00:00:04;;;;;;;7.45;1.00;;;;;;;15.46;63.86;102171.88;7349725;19;20025;-68
2023/05/24 00:02:32;;;;;;;7.35;1.17;;;;;;;15.45;63.51;102179.00;7356273;19;20023;-68
2023/05/24 00:04:59;;;;;;;7.50;1.35;;;;;;;15.43;63.23;102181.00;7356709;19;20394;-67
2023/05/24 00:07:30;;;;;;;8.00;1.30;;;;;;;15.45;66.46;102176.34;7356605;19;20589;-67
2023/05/24 00:09:57;;;;;;;7.57;0.90;;;;;;;15.46;64.53;102172.72;7354283;19;20014;-66
2023/05/24 00:12:24;;;;;;;10.35;1.38;;;;;;;15.44;63.72;102172.03;7360141;19;20071;-69
2023/05/24 00:14:51;;;;;;;10.95;0.75;;;;;;;15.42;63.23;102176.66;7358463;19;20194;-69
2023/05/24 00:17:18;;;;;;;12.68;0.90;;;;;;;15.43;63.18;102181.00;7352529;19;20018;-67
2023/05/24 00:19:45;;;;;;;6.78;1.10;;;;;;;15.44;65.59;102174.69;7350742;19;20042;-67
2023/05/24 00:22:13;;;;;;;6.95;0.90;;;;;;;15.45;63.54;102178.16;7353559;19;20029;-68
2023/05/24 00:24:40;;;;;;;9.18;0.80;;;;;;;15.46;63.04;102174.53;7357565;19;20030;-66
2023/05/24 00:27:07;;;;;;;8.75;0.80;;;;;;;15.47;63.04;102173.56;7354793;19;20500;-68
2023/05/24 00:29:34;;;;;;;7.53;1.10;;;;;;;15.51;62.84;102172.25;7353335;19;20117;-67
2023/05/24 00:32:01;;;;;;;10.35;0.82;;;;;;;15.51;62.88;102174.91;7356260;19;20019;-68
2023/05/24 00:34:29;;;;;;;7.10;0.80;;;;;;;15.51;62.64;102169.63;7354953;19;20011;-67
2023/05/24 00:36:56;;;;;;;7.70;1.88;;;;;;;15.49;62.58;102167.09;7353318;19;20021;-68
2023/05/24 00:39:23;;;;;;;5.63;0.80;;;;;;;15.49;62.28;102161.78;7360108;19;20128;-68
2023/05/24 00:41:50;;;;;;;6.38;0.60;;;;;;;15.52;62.77;102161.53;7359908;19;20018;-68
2023/05/24 00:44:17;;;;;;;6.65;1.17;;;;;;;15.57;61.56;102164.56;7363445;19;20113;-68
2023/05/24 00:46:45;;;;;;;3.28;0.50;;;;;;;15.57;61.03;102163.75;7358692;19;20036;-68
2023/05/24 00:49:13;;;;;;;4.25;0.80;;;;;;;15.57;60.68;102163.75;7360922;19;20947;-68
2023/05/24 00:51:40;;;;;;;3.78;0.60;;;;;;;15.57;61.98;102159.28;7359710;19;20531;-70
2023/05/24 00:54:07;;;;;;;7.00;0.80;;;;;;;15.57;61.30;102163.75;7361483;19;20018;-67
2023/05/24 00:56:34;;;;;;;7.47;0.68;;;;;;;15.58;60.39;102163.59;7357091;19;20014;-67
2023/05/24 00:59:01;;;;;;;7.13;0.60;;;;;;;15.56;60.41;102165.56;7361588;19;20015;-68
2023/05/24 01:01:29;;;;;;;7.20;0.93;;;;;;;15.57;62.32;102155.78;7358803;19;20122;-67
2023/05/24 01:03:58;;;;;;;6.63;0.68;;;;;;;15.57;60.85;102163.75;7359767;19;20018;-68
2023/05/24 01:06:27;;;;;;;6.68;0.60;;;;;;;15.55;60.39;102158.56;7358531;19;20455;-67
2023/05/24 01:09:21;;;;;;;6.07;0.50;;;;;;;15.54;60.29;102154.28;7361134;19;20122;-67
2023/05/24 01:12:07;;;;;;;5.70;0.63;;;;;;;15.50;60.31;102150.22;7360161;19;20594;-67
2023/05/24 01:14:43;;;;;;;8.48;0.70;;;;;;;15.45;60.73;102149.81;7359673;19;21341;-68
2023/05/24 01:17:18;;;;;;;7.53;0.90;;;;;;;15.42;60.87;102155.44;7359848;19;20086;-68
2023/05/24 01:19:58;;;;;;;6.25;0.43;;;;;;;15.39;60.89;102148.63;7357307;19;20023;-67
2023/05/24 01:22:36;;;;;;;7.82;0.68;;;;;;;15.35;61.02;102130.50;7359901;19;20477;-67
2023/05/24 01:25:04;;;;;;;6.60;0.60;;;;;;;15.35;60.63;102139.28;7361330;19;20014;-68
2023/05/24 01:27:35;;;;;;;4.13;0.68;;;;;;;15.33;60.27;102132.50;7353867;19;20010;-67
2023/05/24 01:30:03;;;;;;;6.32;0.52;;;;;;;15.27;60.14;102138.41;7359870;19;20022;-68
2023/05/24 01:32:31;;;;;;;6.55;0.63;;;;;;;15.21;60.35;102139.00;7359431;19;20054;-68
2023/05/24 01:34:58;;;;;;;5.43;0.45;;;;;;;15.19;60.04;102140.94;7359188;19;20015;-68
2023/05/24 01:37:25;;;;;;;6.40;0.60;;;;;;;15.18;60.91;102129.53;7360340;19;20014;-68
2023/05/24 01:39:53;;;;;;;5.80;0.68;;;;;;;15.17;60.12;102130.50;7359190;19;20356;-69
2023/05/24 01:42:27;;;;;;;4.35;0.50;;;;;;;15.16;60.26;102138.59;7360025;19;20078;-69
2023/05/24 01:45:14;;;;;;;7.10;0.60;;;;;;;15.12;60.73;102137.25;7362894;19;20024;-71
2023/05/24 01:48:02;;;;;;;6.53;0.60;;;;;;;15.15;61.31;102136.94;7357141;19;20017;-68
2023/05/24 01:50:44;;;;;;;5.45;0.63;;;;;;;15.11;61.12;102135.56;7355807;19;20018;-69
2023/05/24 01:53:16;;;;;;;6.05;1.30;;;;;;;15.05;61.50;102134.34;7360611;19;20018;-68
2023/05/24 01:55:46;;;;;;;2.65;0.40;;;;;;;15.01;62.48;102133.00;7359539;19;20026;-68
2023/05/24 01:58:16;;;;;;;7.43;0.70;;;;;;;14.96;63.48;102130.78;7355624;19;20017;-67
2023/05/24 02:00:44;;;;;;;3.72;0.70;;;;;;;14.90;63.44;102131.38;7357989;19;20333;-67
2023/05/24 02:03:14;;;;;;;6.57;1.58;;;;;;;14.87;63.20;102128.19;7361250;19;20149;-67
2023/05/24 02:05:43;;;;;;;4.63;0.57;;;;;;;14.84;63.58;102124.00;7359619;19;20026;-68
2023/05/24 02:08:11;;;;;;;7.97;0.80;;;;;;;14.85;65.13;102124.84;7357138;19;20044;-68
2023/05/24 02:10:39;;;;;;;4.43;0.70;;;;;;;14.86;64.41;102124.72;7357463;19;20108;-67
2023/05/24 02:13:07;;;;;;;10.70;1.13;;;;;;;14.89;64.24;102123.56;7354704;19;20031;-67
2023/05/24 02:15:35;;;;;;;13.75;0.95;;;;;;;14.91;63.50;102132.22;7340208;19;20029;-67
2023/05/24 02:18:02;;;;;;;8.20;1.35;;;;;;;14.88;63.81;102125.38;7347304;19;20085;-67
2023/05/24 02:20:30;;;;;;;6.95;0.90;;;;;;;14.85;64.31;102123.03;7359534;19;20106;-67
2023/05/24 02:22:57;;;;;;;6.97;0.85;;;;;;;14.83;64.53;102122.34;7356235;19;20018;-67
2023/05/24 02:25:24;;;;;;;5.72;0.73;;;;;;;14.86;64.87;102123.88;7357530;19;20014;-67
2023/05/24 02:27:51;;;;;;;6.80;1.27;;;;;;;14.85;64.81;102123.03;7358170;19;20445;-67
2023/05/24 02:30:19;;;;;;;8.25;0.95;;;;;;;14.85;65.21;102122.19;7357213;19;20027;-68
2023/05/24 02:32:46;;;;;;;8.57;1.52;;;;;;;14.84;65.43;102115.22;7355533;19;20007;-67
2023/05/24 02:35:13;;;;;;;6.95;0.80;;;;;;;14.85;65.33;102119.56;7354285;19;20047;-68
2023/05/24 02:37:40;;;;;;;5.88;0.88;;;;;;;14.82;65.67;102115.41;7358232;19;20028;-68
2023/05/24 02:40:08;;;;;;;8.40;1.33;;;;;;;14.84;68.29;102118.72;7355802;19;20013;-67
2023/05/24 02:42:35;;;;;;;9.02;1.13;;;;;;;14.78;66.80;102114.00;7359032;19;20105;-67
2023/05/24 02:45:03;;;;;;;7.10;0.90;;;;;;;14.74;66.30;102109.16;7359174;19;20018;-67
2023/05/24 02:47:30;;;;;;;8.20;0.82;;;;;;;14.66;66.70;102115.19;7356970;19;20033;-67
2023/05/24 02:49:57;;;;;;;8.80;1.40;;;;;;;14.61;67.44;102117.47;7355924;19;20018;-67
2023/05/24 02:52:25;;;;;;;10.07;1.10;;;;;;;14.60;68.17;102121.09;7356181;19;20026;-67
2023/05/24 02:54:52;;;;;;;4.80;0.90;;;;;;;14.54;67.87;102116.38;7357936;19;20527;-68
2023/05/24 02:57:19;;;;;;;8.40;1.30;;;;;;;14.55;68.17;102116.22;7357943;19;21818;-68
2023/05/24 02:59:46;;;;;;;4.65;0.95;;;;;;;14.56;68.09;102119.72;7354325;19;20037;-67
2023/05/24 03:02:14;;;;;;;5.28;0.90;;;;;;;14.55;69.36;102118.88;7356087;19;20039;-68
2023/05/24 03:04:41;;;;;;;6.95;0.85;;;;;;;14.53;69.57;102112.03;7357268;19;20636;-69
2023/05/24 03:07:09;;;;;;;6.03;0.88;;;;;;;14.52;69.92;102111.25;7355879;19;20015;-69
2023/05/24 03:09:36;;;;;;;9.80;1.23;;;;;;;14.52;70.17;102108.59;7359602;19;20234;-69
2023/05/24 03:12:04;;;;;;;7.85;1.23;;;;;;;14.54;70.92;102105.78;7358401;19;20022;-68
2023/05/24 03:14:31;;;;;;;8.75;2.08;;;;;;;14.55;71.41;102110.09;7357515;19;20037;-67
2023/05/24 03:16:58;;;;;;;8.27;1.27;;;;;;;14.54;71.57;102103.97;7359070;19;20014;-68
2023/05/24 03:19:25;;;;;;;7.80;1.20;;;;;;;14.51;71.56;102108.72;7364779;19;20546;-68
2023/05/24 03:21:52;;;;;;;10.77;1.50;;;;;;;14.46;72.39;102111.81;7363270;19;20593;-68
2023/05/24 03:24:20;;;;;;;5.82;1.10;;;;;;;14.46;73.04;102106.53;7363004;19;20010;-68
2023/05/24 03:26:47;;;;;;;11.80;1.17;;;;;;;14.46;72.97;102111.81;7365456;19;20019;-67
2023/05/24 03:29:14;;;;;;;7.97;1.35;;;;;;;14.46;73.19;102113.63;7359124;19;20102;-68
2023/05/24 03:31:41;;;;;;;8.57;1.33;;;;;;;14.43;73.28;102114.75;7358149;19;20488;-66
2023/05/24 03:34:09;;;;;;;8.93;1.70;;;;;;;14.39;73.62;102113.38;7365280;19;20090;-69
2023/05/24 03:36:36;;;;;;;8.30;1.00;;;;;;;14.40;73.76;102114.19;7365856;19;20018;-68
2023/05/24 03:39:03;;;;;;;12.45;2.22;;;;;;;14.39;73.77;102109.88;7364772;19;20010;-68
2023/05/24 03:41:30;;;;;;;10.50;1.30;;;;;;;14.37;73.89;102112.69;7363453;19;20016;-67
2023/05/24 03:43:58;;;;;;;5.10;1.30;;;;;;;14.35;74.04;102111.97;7365892;19;20106;-68
2023/05/24 03:46:25;;;;;;;9.10;1.27;;;;;;;14.29;74.99;102112.53;7359356;19;20019;-68
2023/05/24 03:48:52;;;;;;;5.50;1.23;;;;;;;14.26;74.86;102104.06;7363869;19;20015;-68
2023/05/24 03:51:22;;;;;;;7.60;1.23;;;;;;;14.23;74.63;102123.69;7363412;19;20044;-67
2023/05/24 03:53:49;;;;;;;13.85;1.58;;;;;;;14.21;74.76;102116.91;7363645;19;20021;-67
2023/05/24 03:56:16;;;;;;;10.88;1.08;;;;;;;14.20;75.23;102118.72;7365202;19;20023;-68
2023/05/24 03:58:43;;;;;;;7.05;0.90;;;;;;;14.17;74.74;102118.97;7365129;19;20077;-67
2023/05/24 04:01:11;;;;;;;6.18;1.30;;;;;;;14.19;75.04;102111.75;7359871;19;20010;-67
2023/05/24 04:03:55;;;;;;;6.28;1.20;;;;;;;14.12;75.06;102119.41;7364865;19;20014;-67
2023/05/24 04:06:27;;;;;;;11.55;1.65;;;;;;;14.11;74.86;102101.06;7363931;19;20880;-67
2023/05/24 04:08:56;;;;;;;9.13;1.65;;;;;;;14.10;75.05;102110.81;7362768;19;20022;-68
2023/05/24 04:11:26;;;;;;;7.53;1.25;;;;;;;14.08;74.99;102114.56;7364713;19;20719;-68
2023/05/24 04:13:54;;;;;;;5.38;1.30;;;;;;;14.04;75.18;102115.81;7359927;19;20047;-68
2023/05/24 04:16:24;;;;;;;11.30;2.35;;;;;;;14.01;75.23;102113.47;7359894;19;20425;-69
2023/05/24 04:18:54;;;;;;;9.13;1.70;;;;;;;14.01;75.78;102114.31;7361370;19;20039;-69
2023/05/24 04:21:21;;;;;;;6.40;1.52;;;;;;;14.02;75.76;102109.81;7361732;19;20607;-68
2023/05/24 04:23:49;;;;;;;8.00;1.90;;;;;;;14.02;75.71;102115.97;7361877;19;20015;-68
2023/05/24 04:26:16;;;;;;;13.60;2.08;;;;;;;14.04;75.31;102114.00;7358358;19;20014;-67
2023/05/24 04:28:45;;;;;;;11.90;1.50;;;;;;;14.06;75.17;102113.88;7363085;19;20468;-66
2023/05/24 04:31:12;;;;;;;9.75;1.52;;;;;;;14.04;75.07;102106.06;7359460;19;20011;-67
2023/05/24 04:33:40;;;;;;;10.35;1.63;;;;;;;14.01;75.72;102108.19;7363132;19;20011;-67
2023/05/24 04:36:10;;;;;;;8.48;1.63;;;;;;;14.01;75.54;102105.53;7360273;19;20379;-68
2023/05/24 04:38:38;;;;;;;6.78;1.50;;;;;;;14.03;75.65;102112.34;7359966;19;20018;-68
2023/05/24 04:41:05;;;;;;;11.23;1.83;;;;;;;14.09;75.76;102109.13;7360832;19;20113;-67
2023/05/24 04:43:34;;;;;;;9.88;2.22;;;;;;;14.12;75.42;102110.63;7361118;19;20022;-67
2023/05/24 04:46:01;;;;;;;9.07;1.83;;;;;;;14.10;74.79;102110.81;7358980;19;20019;-68
2023/05/24 04:48:29;;;;;;;12.55;1.98;;;;;;;14.12;74.36;102115.94;7361031;19;20039;-68
2023/05/24 04:50:57;;;;;;;16.17;2.10;;;;;;;14.12;74.53;102119.41;7359141;19;20015;-68
2023/05/24 04:53:25;;;;;;;11.07;2.00;;;;;;;14.15;74.24;102113.00;7361016;19;20338;-67
2023/05/24 04:55:52;;;;;;;16.05;2.05;;;;;;;14.17;73.86;102112.88;7362493;19;20014;-67
2023/05/24 04:58:19;;;;;;;9.02;1.70;;;;;;;14.16;73.53;102092.66;7362673;19;20023;-67
2023/05/24 05:00:47;;;;;;;8.45;1.75;;;;;;;14.16;73.70;102100.63;7356235;19;20031;-68
2023/05/24 05:03:14;;;;;;;11.88;2.22;;;;;;;14.20;73.80;102099.34;7359668;19;20021;-66
2023/05/24 05:05:42;;;;;;;15.40;2.13;;;;;;;14.23;73.13;102097.22;7360321;19;20962;-68
2023/05/24 05:08:09;;;;;;;8.07;1.95;;;;;;;14.24;72.85;102092.78;7360650;19;20015;-67
2023/05/24 05:10:36;;;;;;;9.82;2.30;;;;;;;14.26;72.50;102093.47;7360653;19;20942;-65
2023/05/24 05:13:03;;;;;;;12.68;2.13;;;;;;;14.29;72.82;102085.22;7361989;19;20011;-64
2023/05/24 05:15:31;;;;;;;12.65;1.90;;;;;;;14.29;72.61;102086.06;7354343;19;20058;-64
2023/05/24 05:17:59;;;;;;;8.30;2.00;;;;;;;14.34;72.44;102093.56;7359384;19;20018;-64
2023/05/24 05:20:26;;;;;;;8.65;1.63;;;;;;;14.35;72.54;102090.78;7356910;19;20018;-63
2023/05/24 05:22:53;;;;;;;14.10;2.50;;;;;;;14.37;72.58;102090.69;7357467;19;20019;-64
2023/05/24 05:25:21;;;;;;;11.73;2.17;;;;;;;14.37;72.26;102102.09;7358508;19;20273;-64
2023/05/24 05:27:48;;;;;;;10.05;1.88;;;;;;;14.39;72.22;102099.28;7361821;19;20063;-64
2023/05/24 05:30:15;;;;;;;13.93;1.90;;;;;;;14.41;72.32;102102.63;7357340;19;20575;-63
2023/05/24 05:32:42;;;;;;;13.50;2.22;;;;;;;14.44;72.48;102111.13;7360901;19;20106;-65
2023/05/24 05:35:10;;;;;;;15.95;2.25;;;;;;;14.47;72.20;102104.72;7362827;19;20019;-65
2023/05/24 05:37:37;;;;;;;10.38;2.20;;;;;;;14.52;72.05;102111.25;7363340;19;20014;-65
2023/05/24 05:40:04;;;;;;;16.60;2.38;;;;;;;14.54;72.59;102105.78;7361102;19;20035;-64
2023/05/24 05:42:32;;;;;;;16.75;3.30;;;;;;;14.58;72.00;102109.78;7357862;19;20047;-65
2023/05/24 05:44:59;;;;;;;14.63;2.60;;;;;;;14.59;71.41;102108.81;7359620;19;20081;-64
2023/05/24 05:47:26;;;;;;;11.68;2.42;;;;;;;14.55;71.91;102113.56;7356383;19;20014;-65
2023/05/24 05:49:53;;;;;;;14.38;2.80;;;;;;;14.53;71.86;102114.69;7360953;19;20042;-64
2023/05/24 05:52:20;;;;;;;14.50;2.45;;;;;;;14.52;72.03;102121.00;7360421;19;20062;-63
2023/05/24 05:54:48;;;;;;;12.23;2.17;;;;;;;14.52;71.97;102121.00;7357009;19;20571;-64
2023/05/24 05:57:15;;;;;;;12.45;2.35;;;;;;;14.57;72.06;102125.84;7357683;19;20011;-66
2023/05/24 05:59:42;;;;;;;12.63;2.00;;;;;;;14.60;71.97;102126.38;7358317;19;21324;-64
2023/05/24 06:02:11;;;;;;;12.27;2.33;;;;;;;14.62;72.22;102126.25;7355312;19;20105;-64
2023/05/24 06:04:38;;;;;;;12.35;1.85;;;;;;;14.63;72.13;102123.44;7362032;19;20876;-64
2023/05/24 06:07:06;;;;;;;14.98;2.72;;;;;;;14.67;72.88;102126.63;7362965;19;20016;-63
2023/05/24 06:09:33;;;;;;;10.82;2.25;;;;;;;14.79;72.19;102133.38;7355200;19;20018;-64
2023/05/24 06:12:00;;;;;;;10.95;2.03;;;;;;;15.25;70.47;102130.59;7356035;19;20043;-64
2023/05/24 06:14:27;;;;;;;20.33;3.05;;;;;;;16.05;70.54;102144.72;7359657;19;20018;-64
2023/05/24 06:16:55;;;;;;;14.73;2.00;;;;;;;16.71;65.70;102138.78;7354979;19;20018;-63
2023/05/24 06:19:25;;;;;;;13.93;1.98;;;;;;;17.33;67.06;102138.25;7358243;19;20023;-63
2023/05/24 06:21:53;;;;;;;12.75;2.20;;;;;;;17.75;61.74;102130.16;7357854;19;20982;-62
2023/05/24 06:24:20;;;;;;;13.93;2.10;;;;;;;17.98;61.08;102126.81;7357292;19;20019;-65
2023/05/24 06:26:49;;;;;;;13.77;1.95;;;;;;;17.90;60.02;102131.16;7358072;19;20102;-63
2023/05/24 06:29:19;;;;;;;12.93;2.25;;;;;;;17.84;61.02;102141.63;7359211;19;20036;-64
2023/05/24 06:31:47;;;;;;;8.32;2.00;;;;;;;17.83;61.51;102142.63;7352176;19;20040;-64
2023/05/24 06:34:16;;;;;;;10.75;2.13;;;;;;;17.92;59.94;102146.97;7357995;19;20522;-64
2023/05/24 06:36:46;;;;;;;12.30;2.15;;;;;;;17.86;59.69;102145.81;7356520;19;20007;-65
2023/05/24 06:39:14;;;;;;;8.82;1.63;;;;;;;17.65;60.54;102137.50;7357569;19;20022;-65
2023/05/24 06:41:43;;;;;;;12.85;1.65;;;;;;;17.37;61.88;102144.13;7358511;19;20053;-63
2023/05/24 06:44:10;;;;;;;13.30;2.33;;;;;;;17.05;62.44;102148.38;7356899;19;20042;-64
2023/05/24 06:46:38;;;;;;;14.65;3.75;;;;;;;16.79;63.23;102149.44;7352223;19;20044;-64
2023/05/24 06:49:05;;;;;;;8.80;1.90;;;;;;;16.53;64.04;102144.97;7351700;19;20095;-64
2023/05/24 06:51:33;;;;;;;11.40;1.88;;;;;;;16.34;65.19;102144.38;7353023;19;20058;-66
2023/05/24 06:54:02;;;;;;;14.45;2.63;;;;;;;16.20;65.74;102140.50;7353152;19;20127;-64
2023/05/24 06:56:34;;;;;;;12.55;2.10;;;;;;;16.08;66.34;102139.91;7353749;19;20018;-63
2023/05/24 06:59:02;;;;;;;16.30;2.78;;;;;;;16.01;66.76;102138.88;7355577;19;20018;-64
2023/05/24 07:01:29;;;;;;;13.80;1.98;;;;;;;15.98;67.19;102139.19;7352052;19;20303;-63
2023/05/24 07:03:56;;;;;;;15.65;3.20;;;;;;;15.94;67.63;102129.88;7353805;19;20616;-65
2023/05/24 07:06:24;;;;;;;14.10;1.88;;;;;;;15.95;68.81;102136.03;7354937;19;20048;-63
2023/05/24 07:08:51;;;;;;;19.50;2.45;;;;;;;15.95;69.12;102130.72;7357630;19;20969;-64
2023/05/24 07:11:18;;;;;;;12.65;2.05;;;;;;;15.99;69.23;102138.22;7358639;19;20014;-65
2023/05/24 07:13:45;;;;;;;15.02;2.03;;;;;;;16.02;68.18;102137.88;7356785;19;20507;-64
2023/05/24 07:16:13;;;;;;;10.30;2.35;;;;;;;16.13;67.12;102148.25;7351078;19;20518;-64
2023/05/24 07:18:40;;;;;;;13.57;1.77;;;;;;;16.18;67.42;102150.44;7356117;19;20010;-64
2023/05/24 07:21:07;;;;;;;15.23;3.05;;;;;;;16.22;66.61;102144.66;7352810;19;20006;-64
2023/05/24 07:23:36;;;;;;;9.18;1.88;;;;;;;16.15;66.71;102156.06;7358380;19;20036;-63
2023/05/24 07:26:03;;;;;;;15.70;2.03;;;;;;;16.14;66.79;102149.94;7358640;19;20048;-64
2023/05/24 07:28:31;;;;;;;10.40;1.85;;;;;;;16.14;67.23;102143.78;7355434;19;20443;-63
2023/05/24 07:30:58;;;;;;;13.27;2.50;;;;;;;16.30;66.65;102151.84;7352527;19;20050;-63
2023/05/24 07:33:25;;;;;;;12.88;2.05;;;;;;;16.77;64.90;102151.41;7355778;19;20018;-68
2023/05/24 07:35:53;;;;;;;10.95;1.55;;;;;;;17.14;64.35;102156.34;7353433;19;20289;-64
2023/05/24 07:38:20;;;;;;;16.50;2.33;;;;;;;17.61;62.16;102161.94;7353815;19;20475;-63
2023/05/24 07:40:48;;;;;;;11.95;1.83;;;;;;;17.93;60.78;102160.09;7356031;19;20015;-63
2023/05/24 07:43:15;;;;;;;11.15;1.48;;;;;;;17.95;60.84;102155.44;7355332;19;20033;-64
2023/05/24 07:45:42;;;;;;;9.15;1.52;;;;;;;18.35;61.04;102153.69;7349294;19;20014;-65
2023/05/24 07:48:10;;;;;;;14.18;2.80;;;;;;;18.59;59.53;102152.84;7356043;19;20510;-63
2023/05/24 07:50:37;;;;;;;12.25;1.77;;;;;;;18.80;58.88;102147.72;7351565;19;20093;-64
2023/05/24 07:53:05;;;;;;;11.45;1.60;;;;;;;18.83;58.42;102150.06;7354566;19;20926;-64
2023/05/24 07:55:32;;;;;;;12.00;1.73;;;;;;;18.90;59.14;102147.50;7352823;19;20026;-65
2023/05/24 07:58:00;;;;;;;10.52;2.28;;;;;;;18.80;58.49;102148.56;7356840;19;20019;-62
2023/05/24 08:00:32;;;;;;;11.15;1.50;;;;;;;18.56;58.63;102146.00;7349942;19;20011;-64
2023/05/24 08:03:00;;;;;;;10.80;1.60;;;;;;;18.37;59.21;102149.88;7363199;19;20054;-65
2023/05/24 08:05:27;;;;;;;10.80;1.95;;;;;;;18.21;60.05;102151.75;7361432;19;20037;-64
2023/05/24 08:07:55;;;;;;;14.75;1.85;;;;;;;18.07;60.91;102149.78;7362092;19;20397;-62
2023/05/24 08:10:24;;;;;;;8.93;1.60;;;;;;;18.04;61.05;102148.25;7359586;19;20019;-63
2023/05/24 08:12:53;;;;;;;10.68;1.85;;;;;;;18.42;59.50;102149.34;7361274;19;20025;-64
2023/05/24 08:15:21;;;;;;;10.63;1.85;;;;;;;18.95;58.98;102145.97;7358945;19;21247;-63
2023/05/24 08:17:49;;;;;;;7.32;1.85;;;;;;;19.36;56.72;102146.56;7362692;19;20066;-64
2023/05/24 08:20:17;;;;;;;8.88;1.70;;;;;;;19.46;56.56;102143.69;7359933;19;20046;-65
2023/05/24 08:22:47;;;;;;;12.80;1.60;;;;;;;19.71;56.16;102147.00;7362457;19;20360;-66
2023/05/24 08:25:14;;;;;;;10.43;1.30;;;;;;;19.78;55.33;102145.25;7360618;19;20018;-64
2023/05/24 08:27:42;;;;;;;8.23;1.60;;;;;;;19.73;54.61;102150.31;7360041;19;20010;-65
2023/05/24 08:30:12;;;;;;;13.18;1.80;;;;;;;19.69;54.35;102139.16;7358950;19;20019;-63
2023/05/24 08:32:39;;;;;;;11.55;1.48;;;;;;;19.56;55.12;102154.94;7363018;19;20844;-64
2023/05/24 08:35:08;;;;;;;16.23;2.17;;;;;;;19.38;55.54;102149.91;7360771;19;20010;-64
2023/05/24 08:37:46;;;;;;;12.07;1.70;;;;;;;19.00;56.64;102146.28;7360628;19;20090;-63
2023/05/24 08:40:15;;;;;;;8.65;1.85;;;;;;;18.77;57.46;102145.41;7359013;19;20014;-65
2023/05/24 08:42:44;;;;;;;9.82;1.92;;;;;;;18.56;58.80;102151.34;7344820;19;20022;-63
2023/05/24 08:45:14;;;;;;;10.55;1.52;;;;;;;18.57;58.67;102139.69;7347224;19;20044;-63
2023/05/24 08:47:42;;;;;;;12.18;1.50;;;;;;;18.44;59.40;102131.34;7351311;19;20046;-63
2023/05/24 08:50:12;;;;;;;11.25;1.98;;;;;;;18.39;60.06;102131.03;7353770;19;20011;-63
2023/05/24 08:52:41;;;;;;;10.52;1.80;;;;;;;18.43;60.90;102123.53;7354993;19;20689;-64
2023/05/24 08:55:10;;;;;;;11.20;2.60;;;;;;;18.54;60.09;102125.88;7351218;19;20006;-63
2023/05/24 08:57:39;;;;;;;7.82;1.90;;;;;;;18.73;58.48;102126.28;7349015;19;20015;-63
2023/05/24 09:00:11;;;;;;;10.30;2.53;;;;;;;18.62;58.36;102125.81;7351630;19;20125;-64
2023/05/24 09:02:40;;;;;;;8.20;1.90;;;;;;;18.50;59.13;102114.66;7353613;19;20053;-65
2023/05/24 09:05:11;;;;;;;8.57;1.60;;;;;;;18.46;58.96;102112.53;7351680;19;20025;-65
2023/05/24 09:07:40;;;;;;;11.55;1.90;;;;;;;18.64;57.43;102111.28;7351975;19;20022;-64
2023/05/24 09:10:09;;;;;;;10.90;1.85;;;;;;;18.96;56.95;102112.13;7350759;19;20018;-62
2023/05/24 09:12:38;;;;;;;10.13;2.40;;;;;;;19.02;57.06;102095.44;7350851;19;20011;-63
2023/05/24 09:15:07;;;;;;;9.73;1.33;;;;;;;19.04;57.20;102104.09;7350933;19;20677;-64
2023/05/24 09:17:36;;;;;;;12.20;1.83;;;;;;;19.05;58.10;102095.06;7355166;19;20010;-64
2023/05/24 09:20:09;;;;;;;9.68;1.70;;;;;;;19.08;57.46;102100.91;7357972;19;20483;-64
2023/05/24 09:22:39;;;;;;;9.70;1.50;;;;;;;19.11;56.70;102107.69;7356541;19;20019;-64
2023/05/24 09:25:09;;;;;;;9.95;1.80;;;;;;;19.09;57.00;102104.41;7353043;19;20113;-64
2023/05/24 09:27:37;;;;;;;8.90;1.65;;;;;;;19.01;57.03;102107.09;7351638;19;20019;-64
2023/05/24 09:30:11;;;;;;;6.72;1.67;;;;;;;18.97;57.02;102101.28;7350039;19;20022;-63
2023/05/24 09:32:39;;;;;;;11.50;1.95;;;;;;;18.96;56.09;102112.13;7354934;19;20018;-64
2023/05/24 09:35:08;;;;;;;9.48;1.23;;;;;;;18.93;55.89;102109.81;7356169;19;20018;-63
2023/05/24 09:37:39;;;;;;;8.93;1.70;;;;;;;18.95;56.36;102099.78;7354348;19;20018;-65
2023/05/24 09:40:17;;;;;;;10.23;1.73;;;;;;;18.91;56.34;102102.00;7350920;19;20042;-63
2023/05/24 09:42:45;;;;;;;7.30;1.50;;;;;;;18.96;56.75;102109.47;7355318;19;20022;-66
2023/05/24 09:45:13;;;;;;;8.77;1.20;;;;;;;18.98;56.78;102113.63;7347920;19;20021;-65
2023/05/24 09:47:42;;;;;;;11.68;1.60;;;;;;;19.06;56.30;102110.06;7354306;19;20656;-65
2023/05/24 09:50:16;;;;;;;9.95;1.58;;;;;;;19.11;55.89;102113.88;7353087;19;20596;-65
2023/05/24 09:52:44;;;;;;;8.18;1.48;;;;;;;19.13;55.79;102109.19;7351554;19;20016;-64
2023/05/24 09:55:17;;;;;;;9.82;1.75;;;;;;;19.25;54.94;102106.94;7352963;19;20086;-63
2023/05/24 09:57:51;;;;;;;9.25;1.48;;;;;;;19.31;54.22;102103.56;7352250;19;20011;-63
2023/05/24 10:00:22;;;;;;;8.40;1.58;;;;;;;19.34;54.44;102111.22;7347857;19;20018;-64
2023/05/24 10:03:01;;;;;;;10.93;1.63;;;;;;;19.33;54.40;102106.88;7354384;19;20057;-64
2023/05/24 10:05:29;;;;;;;8.90;1.30;;;;;;;19.34;55.10;102105.06;7352990;19;20021;-65
2023/05/24 10:07:58;;;;;;;9.57;1.58;;;;;;;19.39;55.57;102102.66;7350724;19;20013;-65
2023/05/24 10:10:28;;;;;;;8.80;1.50;;;;;;;19.53;55.70;102101.91;7353251;19;20022;-64
2023/05/24 10:12:56;;;;;;;7.45;1.63;;;;;;;19.61;55.46;102108.00;7352537;19;20372;-64
2023/05/24 10:15:25;;;;;;;6.68;1.77;;;;;;;19.72;54.65;102098.72;7347809;19;20102;-64
2023/05/24 10:17:55;;;;;;;10.25;1.90;;;;;;;19.84;54.20;102101.81;7350179;19;20047;-63
2023/05/24 10:20:23;;;;;;;11.20;1.70;;;;;;;19.93;53.62;102096.19;7349060;19;20106;-64
2023/05/24 10:22:58;;;;;;;7.18;1.55;;;;;;;20.07;53.65;102089.19;7355280;19;20026;-64
2023/05/24 10:25:27;;;;;;;12.00;1.40;;;;;;;20.13;53.97;102090.28;7350634;19;20017;-64
2023/05/24 10:27:59;;;;;;;7.80;1.90;;;;;;;20.15;53.76;102093.63;7351949;19;20033;-64
2023/05/24 10:30:36;;;;;;;10.07;1.52;;;;;;;20.15;53.72;102091.78;7348493;19;20053;-63
2023/05/24 10:33:06;;;;;;;10.20;1.45;;;;;;;20.23;52.29;102090.84;7352364;19;20479;-63
2023/05/24 10:35:37;;;;;;;8.00;1.90;;;;;;;20.20;51.73;102085.88;7352948;19;20041;-64
2023/05/24 10:38:06;;;;;;;9.32;2.00;;;;;;;20.17;53.18;102086.22;7351306;19;20018;-64
2023/05/24 10:40:40;;;;;;;7.95;1.50;;;;;;;20.17;53.84;102084.38;7350278;19;20014;-63
2023/05/24 10:43:08;;;;;;;9.80;1.75;;;;;;;20.20;54.03;102077.84;7351928;19;20014;-63
2023/05/24 10:45:37;;;;;;;11.27;1.75;;;;;;;20.23;53.34;102085.50;7348488;19;20956;-63
2023/05/24 10:48:12;;;;;;;14.43;1.60;;;;;;;20.21;52.92;102079.53;7343041;19;20744;-64
2023/05/24 10:50:42;;;;;;;10.45;1.85;;;;;;;20.13;53.22;102066.25;7352938;19;21008;-64
2023/05/24 10:53:11;;;;;;;10.88;1.45;;;;;;;20.13;53.37;102072.41;7352319;19;20019;-63
2023/05/24 10:55:59;;;;;;;9.65;1.52;;;;;;;20.12;53.23;102072.59;7353929;19;20105;-64
2023/05/24 10:58:29;;;;;;;8.50;1.23;;;;;;;20.11;53.45;102066.44;7352931;19;20053;-63
2023/05/24 11:00:56;;;;;;;7.60;1.02;;;;;;;20.20;53.39;102065.31;7346749;19;20022;-63
2023/05/24 11:03:24;;;;;;;10.93;1.90;;;;;;;20.23;54.75;102074.81;7354789;19;20010;-64
2023/05/24 11:05:53;;;;;;;7.50;1.67;;;;;;;20.29;53.86;102072.22;7350089;19;20011;-63
2023/05/24 11:08:32;;;;;;;7.65;1.55;;;;;;;20.40;52.41;102076.31;7352434;19;20029;-64
2023/05/24 11:11:03;;;;;;;7.18;1.30;;;;;;;20.39;52.36;102091.53;7348717;19;20532;-64
2023/05/24 11:13:54;;;;;;;11.15;1.50;;;;;;;20.46;52.86;102080.91;7352213;19;20729;-64
2023/05/24 11:16:32;;;;;;;7.32;1.55;;;;;;;20.48;53.17;102078.88;7346720;19;21660;-64
2023/05/24 11:19:15;;;;;;;10.27;1.65;;;;;;;20.42;53.48;102072.41;7349643;19;20011;-63
2023/05/24 11:21:45;;;;;;;7.13;1.63;;;;;;;20.39;52.82;102075.47;7352001;19;20514;-64
2023/05/24 11:24:13;;;;;;;9.82;1.52;;;;;;;20.36;52.73;102077.69;7349009;19;21113;-63
2023/05/24 11:26:41;;;;;;;8.48;1.63;;;;;;;20.36;53.27;102081.22;7349935;19;20022;-63
2023/05/24 11:29:09;;;;;;;10.27;2.00;;;;;;;20.34;53.36;102074.38;7351351;19;20029;-64